Terminal Aerodrome Forecast
Issued by NWS

Home | Current Version | Previous Version | Text Only | Print | Product List | Glossary On
Versions: 1 2 3 4 5 6 7 8 9 10 11 12 13 14 15 16 17 18 19 20 21
000
FTUS42 KFFC 231100
TAFRYY
TAF
KRYY 231127Z 2312/2412 00000KT P6SM FEW006 BKN045
     FM231400 00000KT P6SM SCT035
     FM231700 27005KT P6SM VCSH SCT035 BKN050
     FM240000 00000KT P6SM SCT040 SCT080
     FM240900 00000KT P6SM BKN025=

USA.gov is the U.S. government's official web portal to all federal, state and local government web resources and services.